createdAt,value
2023-05-08T00:00:41.985Z,99386.59
2023-05-08T00:03:09.729Z,99377.03
2023-05-08T00:05:37.416Z,99386.59
2023-05-08T00:08:05.483Z,99382.06
2023-05-08T00:10:33.152Z,99378.47
2023-05-08T00:13:02.121Z,99383.84
2023-05-08T00:15:29.734Z,99379.31
2023-05-08T00:17:57.366Z,99382.22
2023-05-08T00:20:24.993Z,99369.53
2023-05-08T00:22:52.518Z,99382.06
2023-05-08T00:25:20.096Z,99386.16
2023-05-08T00:27:47.648Z,99391.63
2023-05-08T00:30:17.238Z,99388.22
2023-05-08T00:32:44.897Z,99383.19
2023-05-08T00:35:12.553Z,99392.13
2023-05-08T00:37:41.044Z,99375.34
2023-05-08T00:40:11.187Z,99385.56
2023-05-08T00:42:39.706Z,99391.91
2023-05-08T00:45:08.659Z,99390.78
2023-05-08T00:47:37.579Z,99390.53
2023-05-08T00:50:06.328Z,99385.22
2023-05-08T00:52:34.264Z,99394.72
2023-05-08T00:55:02.468Z,99393.94
2023-05-08T00:57:31.567Z,99401.16
2023-05-08T01:00:01.120Z,99397.81
2023-05-08T01:02:31.523Z,99404.06
2023-05-08T01:05:01.270Z,99390.69
2023-05-08T01:07:29.395Z,99402.25
2023-05-08T01:09:57.381Z,99403.28
2023-05-08T01:12:30.249Z,99407.16
2023-05-08T01:15:05.701Z,99399.25
2023-05-08T01:17:40.356Z,99400.19
2023-05-08T01:20:30.029Z,99400.44
2023-05-08T01:23:39.422Z,99406.44
2023-05-08T01:26:29.229Z,99400.72
2023-05-08T01:29:45.154Z,99404.22
2023-05-08T01:32:16.255Z,99409.59
2023-05-08T01:34:50.945Z,99406.63
2023-05-08T01:37:23.168Z,99405.31
2023-05-08T01:39:58.408Z,99404.38
2023-05-08T01:42:33.867Z,99403.63
2023-05-08T01:45:05.841Z,99407.88
2023-05-08T01:47:38.554Z,99408.50
2023-05-08T01:50:10.092Z,99408.13
2023-05-08T01:52:44.101Z,99416.44
2023-05-08T01:55:14.019Z,99414.97
2023-05-08T01:57:46.117Z,99415.94
2023-05-08T02:00:16.786Z,99416.72
2023-05-08T02:02:46.902Z,99414.31
2023-05-08T02:05:16.198Z,99415.34
2023-05-08T02:07:45.507Z,99418.69
2023-05-08T02:10:14.928Z,99421.97
2023-05-08T02:12:44.629Z,99422.59
2023-05-08T02:15:14.088Z,99423.78
2023-05-08T02:17:42.280Z,99421.53
2023-05-08T02:20:14.980Z,99423.25
2023-05-08T02:22:43.233Z,99417.44
2023-05-08T02:25:14.386Z,99423.84
2023-05-08T02:27:43.987Z,99417.84
2023-05-08T02:30:13.560Z,99434.00
2023-05-08T02:32:42.677Z,99432.13
2023-05-08T02:35:13.485Z,99435.63
2023-05-08T02:37:42.718Z,99434.00
2023-05-08T02:40:11.768Z,99434.00
2023-05-08T02:42:39.627Z,99436.19
2023-05-08T02:45:08.407Z,99441.25
2023-05-08T02:47:42.803Z,99434.69
2023-05-08T02:50:17.544Z,99438.19
2023-05-08T02:52:47.376Z,99438.69
2023-05-08T02:55:21.673Z,99436.03
2023-05-08T02:57:57.316Z,99438.59
2023-05-08T03:00:28.879Z,99432.69
2023-05-08T03:03:00.745Z,99436.41
2023-05-08T03:05:31.929Z,99432.84
2023-05-08T03:08:02.132Z,99436.09
2023-05-08T03:10:33.327Z,99435.16
2023-05-08T03:13:04.050Z,99436.09
2023-05-08T03:15:35.663Z,99435.66
2023-05-08T03:18:05.269Z,99435.72
2023-05-08T03:20:38.742Z,99437.19
2023-05-08T03:23:07.505Z,99444.59
2023-05-08T03:25:36.029Z,99437.50
2023-05-08T03:28:05.389Z,99428.13
2023-05-08T03:30:34.556Z,99450.75
2023-05-08T03:33:03.102Z,99432.50
2023-05-08T03:35:31.628Z,99443.00
2023-05-08T03:38:00.675Z,99446.53
2023-05-08T03:40:28.719Z,99444.09
2023-05-08T03:42:56.482Z,99441.38
2023-05-08T03:45:24.502Z,99443.41
2023-05-08T03:47:54.099Z,99453.06
2023-05-08T03:50:22.075Z,99453.13
2023-05-08T03:52:49.796Z,99457.34
2023-05-08T03:55:18.922Z,99463.88
2023-05-08T03:57:50.182Z,99447.06
2023-05-08T04:00:22.960Z,99456.63
2023-05-08T04:02:53.885Z,99456.19
2023-05-08T04:05:24.464Z,99456.09
2023-05-08T04:07:54.602Z,99447.44
2023-05-08T04:10:26.144Z,99449.31
2023-05-08T04:12:58.568Z,99449.31
2023-05-08T04:15:29.843Z,99454.97
2023-05-08T04:18:00.595Z,99449.69
2023-05-08T04:20:28.787Z,99453.34
2023-05-08T04:22:56.936Z,99449.03
2023-05-08T04:25:26.366Z,99453.22
2023-05-08T04:27:55.971Z,99459.19
2023-05-08T04:30:23.690Z,99449.03
2023-05-08T04:32:51.748Z,99457.31
2023-05-08T04:35:19.318Z,99458.69
2023-05-08T04:37:46.930Z,99443.34
2023-05-08T04:40:14.885Z,99451.69
2023-05-08T04:42:48.843Z,99452.13
2023-05-08T04:45:16.776Z,99462.56
2023-05-08T04:47:44.495Z,99459.56
2023-05-08T04:50:12.363Z,99471.06
2023-05-08T04:52:39.963Z,99470.50
2023-05-08T04:55:09.096Z,99474.16
2023-05-08T04:57:36.734Z,99479.69
2023-05-08T05:00:07.589Z,99475.75
2023-05-08T05:02:35.228Z,99484.09
2023-05-08T05:05:02.807Z,99480.59
2023-05-08T05:07:30.348Z,99490.34
2023-05-08T05:09:57.924Z,99485.97
2023-05-08T05:12:25.575Z,99489.25
2023-05-08T05:14:53.221Z,99505.72
2023-05-08T05:17:22.694Z,99508.56
2023-05-08T05:19:51.590Z,99504.84
2023-05-08T05:22:20.958Z,99507.50
2023-05-08T05:24:48.508Z,99507.63
2023-05-08T05:27:16.092Z,99504.84
2023-05-08T05:29:43.669Z,99515.88
2023-05-08T05:32:12.010Z,99510.16
2023-05-08T05:34:40.911Z,99520.72
2023-05-08T05:37:08.526Z,99521.22
2023-05-08T05:39:37.786Z,99518.88
2023-05-08T05:42:05.530Z,99525.50
2023-05-08T05:44:33.088Z,99524.66
2023-05-08T05:47:00.638Z,99522.41
2023-05-08T05:49:28.286Z,99533.75
2023-05-08T05:51:57.495Z,99524.34
2023-05-08T05:54:25.047Z,99525.47
2023-05-08T05:56:52.606Z,99534.19
2023-05-08T05:59:20.182Z,99530.34
2023-05-08T06:01:47.771Z,99532.22
2023-05-08T06:04:15.413Z,99537.34
2023-05-08T06:06:43.074Z,99523.47
2023-05-08T06:09:12.051Z,99544.50
2023-05-08T06:11:39.617Z,99537.41
2023-05-08T06:14:07.227Z,99549.19
2023-05-08T06:16:35.590Z,99542.25
2023-05-08T06:19:03.341Z,99545.50
2023-05-08T06:21:30.918Z,99546.81
2023-05-08T06:23:58.479Z,99542.34
2023-05-08T06:26:27.446Z,99540.34
2023-05-08T06:28:54.989Z,99542.19
2023-05-08T06:31:22.593Z,99549.91
2023-05-08T06:33:50.348Z,99541.41
2023-05-08T06:36:17.977Z,99539.50
2023-05-08T06:38:45.584Z,99544.59
2023-05-08T06:41:15.148Z,99543.50
2023-05-08T06:43:44.663Z,99546.63
2023-05-08T06:46:12.376Z,99551.31
2023-05-08T06:48:40.028Z,99553.16
2023-05-08T06:51:07.613Z,99542.13
2023-05-08T06:53:35.244Z,99551.09
2023-05-08T06:56:02.800Z,99538.69
2023-05-08T06:58:31.498Z,99542.66
2023-05-08T07:01:02.056Z,99548.84
2023-05-08T07:03:29.697Z,99545.94
2023-05-08T07:05:57.331Z,99544.09
2023-05-08T07:08:25.884Z,99551.09
2023-05-08T07:10:53.732Z,99543.31
2023-05-08T07:13:22.057Z,99546.31
2023-05-08T07:15:49.778Z,99536.25
2023-05-08T07:18:18.797Z,99547.72
2023-05-08T07:20:46.369Z,99550.44
2023-05-08T07:23:14.068Z,99545.94
2023-05-08T07:25:41.697Z,99549.66
2023-05-08T07:28:09.334Z,99546.94
2023-05-08T07:30:37.325Z,99552.84
2023-05-08T07:33:05.036Z,99550.22
2023-05-08T07:35:34.280Z,99556.59
2023-05-08T07:38:01.872Z,99559.88
2023-05-08T07:40:29.402Z,99557.22
2023-05-08T07:42:56.956Z,99553.28
2023-05-08T07:45:24.695Z,99556.59
2023-05-08T07:47:54.510Z,99555.72
2023-05-08T07:50:24.411Z,99556.28
2023-05-08T07:52:53.882Z,99556.88
2023-05-08T07:55:21.657Z,99557.41
2023-05-08T07:57:49.270Z,99556.69
2023-05-08T08:00:17.567Z,99566.38
2023-05-08T08:02:45.898Z,99562.56
2023-05-08T08:05:13.792Z,99558.63
2023-05-08T08:07:41.572Z,99557.91
2023-05-08T08:10:10.709Z,99558.97
2023-05-08T08:12:39.052Z,99571.13
2023-05-08T08:15:07.710Z,99563.34
2023-05-08T08:17:35.343Z,99561.63
2023-05-08T08:20:02.997Z,99572.38
2023-05-08T08:22:30.640Z,99559.56
2023-05-08T08:24:58.317Z,99574.75
2023-05-08T08:27:27.363Z,99577.59
2023-05-08T08:30:04.887Z,99573.97
2023-05-08T08:32:42.616Z,99576.75
2023-05-08T08:35:11.138Z,99580.97
2023-05-08T08:37:38.896Z,99568.97
2023-05-08T08:40:07.945Z,99575.91
2023-05-08T08:42:36.935Z,99570.06
2023-05-08T08:45:05.148Z,99577.94
2023-05-08T08:47:38.376Z,99577.84
2023-05-08T08:50:07.706Z,99576.50
2023-05-08T08:52:41.199Z,99578.91
2023-05-08T08:55:11.602Z,99585.38
2023-05-08T08:57:43.843Z,99586.50
2023-05-08T09:00:13.719Z,99580.72
2023-05-08T09:02:41.533Z,99583.88
2023-05-08T09:05:10.195Z,99593.31
2023-05-08T09:07:38.629Z,99585.28
2023-05-08T09:10:07.727Z,99589.44
2023-05-08T09:12:35.398Z,99590.16
2023-05-08T09:15:04.794Z,99601.03
2023-05-08T09:17:32.392Z,99595.59
2023-05-08T09:20:00.953Z,99601.09
2023-05-08T09:22:28.647Z,99600.31
2023-05-08T09:24:57.883Z,99599.38
2023-05-08T09:27:26.845Z,99608.03
2023-05-08T09:30:02.841Z,99600.16
2023-05-08T09:32:32.624Z,99603.97
2023-05-08T09:35:00.694Z,99599.75
2023-05-08T09:37:28.862Z,99599.81
2023-05-08T09:39:57.378Z,99603.88
2023-05-08T09:42:25.321Z,99606.31
2023-05-08T09:44:54.144Z,99598.06
2023-05-08T09:47:22.844Z,99605.09
2023-05-08T09:49:59.298Z,99612.97
2023-05-08T09:52:26.933Z,99609.81
2023-05-08T09:54:59.165Z,99612.88
2023-05-08T09:57:26.887Z,99613.41
2023-05-08T10:00:02.343Z,99617.88
2023-05-08T10:02:30.155Z,99612.66
2023-05-08T10:04:59.401Z,99611.56
2023-05-08T10:07:31.199Z,99613.25
2023-05-08T10:10:00.138Z,99612.09
2023-05-08T10:12:28.207Z,99604.00
2023-05-08T10:14:55.904Z,99612.44
2023-05-08T10:17:30.811Z,99605.50
2023-05-08T10:20:02.274Z,99606.72
2023-05-08T10:22:31.091Z,99610.16
2023-05-08T10:24:59.371Z,99610.88
2023-05-08T10:27:35.942Z,99602.94
2023-05-08T10:30:05.251Z,99605.34
2023-05-08T10:32:41.331Z,99608.41
2023-05-08T10:35:12.538Z,99613.63
2023-05-08T10:37:42.766Z,99606.69
2023-05-08T10:40:11.717Z,99607.00
2023-05-08T10:42:40.241Z,99598.19
2023-05-08T10:45:09.413Z,99606.38
2023-05-08T10:47:47.212Z,99607.06
2023-05-08T10:50:30.170Z,99595.56
2023-05-08T10:53:06.625Z,99597.09
2023-05-08T10:55:36.712Z,99590.47
2023-05-08T10:58:11.524Z,99595.88
2023-05-08T11:01:13.957Z,99604.44
2023-05-08T11:03:43.561Z,99599.69
2023-05-08T11:06:13.200Z,99599.91
2023-05-08T11:08:51.840Z,99596.00
2023-05-08T11:11:29.141Z,99589.53
2023-05-08T11:14:00.790Z,99589.69
2023-05-08T11:17:06.243Z,99586.94
2023-05-08T11:19:33.823Z,99590.03
2023-05-08T11:22:16.962Z,99586.41
2023-05-08T11:24:53.859Z,99589.69
2023-05-08T11:27:42.570Z,99588.16
2023-05-08T11:30:23.526Z,99588.59
2023-05-08T11:33:13.828Z,99578.47
2023-05-08T11:35:42.697Z,99584.75
2023-05-08T11:38:18.000Z,99583.47
2023-05-08T11:40:46.965Z,99578.41
2023-05-08T11:43:26.009Z,99587.47
2023-05-08T11:45:54.467Z,99580.47
2023-05-08T11:48:22.180Z,99575.31
2023-05-08T11:50:50.822Z,99586.63
2023-05-08T11:53:19.910Z,99583.63
2023-05-08T11:55:49.052Z,99583.38
2023-05-08T11:58:17.219Z,99593.06
2023-05-08T12:00:46.005Z,99589.47
2023-05-08T12:03:14.520Z,99579.09
2023-05-08T12:05:42.414Z,99582.00
2023-05-08T12:08:10.734Z,99581.16
2023-05-08T12:10:51.474Z,99583.13
2023-05-08T12:13:19.820Z,99581.50
2023-05-08T12:15:47.885Z,99576.78
2023-05-08T12:18:16.929Z,99569.06
2023-05-08T12:20:45.000Z,99575.22
2023-05-08T12:23:12.634Z,99571.88
2023-05-08T12:25:40.882Z,99584.66
2023-05-08T12:28:10.234Z,99584.47
2023-05-08T12:30:38.027Z,99581.56
2023-05-08T12:33:06.929Z,99582.84
2023-05-08T12:35:34.903Z,99582.75
2023-05-08T12:38:03.507Z,99584.22
2023-05-08T12:40:32.710Z,99583.00
2023-05-08T12:43:02.677Z,99592.78
2023-05-08T12:45:33.748Z,99588.59
2023-05-08T12:48:02.775Z,99578.81
2023-05-08T12:50:34.049Z,99589.28
2023-05-08T12:53:04.303Z,99583.28
2023-05-08T12:55:33.603Z,99595.97
2023-05-08T12:58:03.099Z,99585.56
2023-05-08T13:00:39.876Z,99578.72
2023-05-08T13:03:08.682Z,99582.91
2023-05-08T13:05:37.669Z,99579.97
2023-05-08T13:08:07.418Z,99577.56
2023-05-08T13:10:47.988Z,99576.84
2023-05-08T13:13:16.862Z,99559.28
2023-05-08T13:15:46.040Z,99562.16
2023-05-08T13:18:13.833Z,99568.00
2023-05-08T13:20:41.790Z,99563.13
2023-05-08T13:23:10.143Z,99547.66
2023-05-08T13:25:38.509Z,99563.41
2023-05-08T13:28:07.659Z,99563.72
2023-05-08T13:30:35.700Z,99553.44
2023-05-08T13:33:05.462Z,99560.66
2023-05-08T13:35:33.828Z,99547.94
2023-05-08T13:38:01.877Z,99543.09
2023-05-08T13:40:29.739Z,99552.31
2023-05-08T13:42:57.727Z,99553.53
2023-05-08T13:45:25.272Z,99550.13
2023-05-08T13:47:52.901Z,99549.53
2023-05-08T13:50:22.083Z,99541.81
2023-05-08T13:52:51.659Z,99539.84
2023-05-08T13:55:22.604Z,99537.63
2023-05-08T13:57:50.359Z,99540.97
2023-05-08T14:00:18.468Z,99539.94
2023-05-08T14:02:46.312Z,99546.59
2023-05-08T14:05:14.364Z,99543.88
2023-05-08T14:07:43.701Z,99547.69
2023-05-08T14:10:11.814Z,99545.31
2023-05-08T14:12:40.245Z,99538.50
2023-05-08T14:15:09.782Z,99544.22
2023-05-08T14:17:37.377Z,99546.22
2023-05-08T14:20:05.789Z,99537.88
2023-05-08T14:22:33.559Z,99540.13
2023-05-08T14:25:02.470Z,99540.34
2023-05-08T14:27:30.308Z,99535.47
2023-05-08T14:29:57.909Z,99533.16
2023-05-08T14:32:25.538Z,99537.19
2023-05-08T14:34:53.142Z,99527.31
2023-05-08T14:37:20.709Z,99528.13
2023-05-08T14:39:48.283Z,99522.94
2023-05-08T14:42:23.355Z,99516.66
2023-05-08T14:44:51.471Z,99511.13
2023-05-08T14:47:19.157Z,99512.63
2023-05-08T14:49:46.714Z,99515.94
2023-05-08T14:52:14.440Z,99508.00
2023-05-08T14:54:42.246Z,99519.19
2023-05-08T14:57:09.931Z,99512.94
2023-05-08T15:02:27.028Z,99505.75
2023-05-08T15:04:55.935Z,99506.09
2023-05-08T15:07:23.582Z,99507.56
2023-05-08T15:09:51.117Z,99501.88
2023-05-08T15:12:18.690Z,99506.41
2023-05-08T15:14:47.716Z,99501.03
2023-05-08T15:17:15.442Z,99510.06
2023-05-08T15:19:43.368Z,99502.28
2023-05-08T15:22:10.969Z,99501.69
2023-05-08T15:24:38.669Z,99503.88
2023-05-08T15:27:06.362Z,99502.19
2023-05-08T15:29:33.975Z,99510.69
2023-05-08T15:32:03.039Z,99507.91
2023-05-08T15:34:32.894Z,99511.56
2023-05-08T15:37:00.708Z,99509.78
2023-05-08T15:39:28.361Z,99506.84
2023-05-08T15:41:55.949Z,99511.72
2023-05-08T15:44:24.822Z,99510.63
2023-05-08T15:46:54.022Z,99504.13
2023-05-08T15:49:25.753Z,99501.63
2023-05-08T15:51:53.305Z,99503.72
2023-05-08T15:54:21.005Z,99502.31
2023-05-08T15:56:48.766Z,99498.56
2023-05-08T15:59:16.381Z,99502.09
2023-05-08T16:01:44.066Z,99510.44
2023-05-08T16:04:11.684Z,99506.63
2023-05-08T16:06:40.608Z,99510.34
2023-05-08T16:09:08.528Z,99503.94
2023-05-08T16:11:36.092Z,99503.28
2023-05-08T16:14:03.670Z,99499.25
2023-05-08T16:16:31.279Z,99502.91
2023-05-08T16:18:59.122Z,99498.75
2023-05-08T16:21:27.159Z,99504.94
2023-05-08T16:23:56.115Z,99493.63
2023-05-08T16:26:23.789Z,99490.75
2023-05-08T16:28:51.412Z,99491.81
2023-05-08T16:31:19.042Z,99484.03
2023-05-08T16:33:46.629Z,99493.84
2023-05-08T16:36:14.249Z,99485.75
2023-05-08T16:38:41.799Z,99494.59
2023-05-08T16:41:11.262Z,99495.66
2023-05-08T16:43:38.865Z,99487.56
2023-05-08T16:46:06.719Z,99480.19
2023-05-08T16:48:34.902Z,99480.34
2023-05-08T16:51:02.647Z,99485.09
2023-05-08T16:53:32.356Z,99488.63
2023-05-08T16:55:59.923Z,99484.56
2023-05-08T16:58:28.899Z,99484.56
2023-05-08T17:00:56.528Z,99485.69
2023-05-08T17:03:24.220Z,99483.84
2023-05-08T17:05:51.874Z,99489.47
2023-05-08T17:08:19.421Z,99483.41
2023-05-08T17:10:46.996Z,99475.28
2023-05-08T17:13:14.634Z,99476.56
2023-05-08T17:15:43.555Z,99479.63
2023-05-08T17:18:11.110Z,99478.38
2023-05-08T17:20:40.837Z,99480.59
2023-05-08T17:23:09.321Z,99478.47
2023-05-08T17:25:36.951Z,99480.84
2023-05-08T17:28:05.047Z,99476.47
2023-05-08T17:30:32.682Z,99495.63
2023-05-08T17:33:01.646Z,99492.66
2023-05-08T17:35:29.361Z,99488.03
2023-05-08T17:37:56.923Z,99487.81
2023-05-08T17:40:25.922Z,99492.19
2023-05-08T17:42:53.500Z,99492.38
2023-05-08T17:45:21.178Z,99491.88
2023-05-08T17:47:48.843Z,99496.56
2023-05-08T17:50:17.894Z,99499.91
2023-05-08T17:52:45.605Z,99494.41
2023-05-08T17:55:13.199Z,99487.34
2023-05-08T17:57:40.856Z,99491.47
2023-05-08T18:00:09.636Z,99493.19
2023-05-08T18:02:37.385Z,99495.19
2023-05-08T18:05:05.379Z,99489.72
2023-05-08T18:07:34.324Z,99483.44
2023-05-08T18:10:01.986Z,99473.38
2023-05-08T18:12:29.699Z,99486.59
2023-05-08T18:14:59.265Z,99492.88
2023-05-08T18:17:29.377Z,99488.75
2023-05-08T18:19:57.025Z,99488.41
2023-05-08T18:22:24.668Z,99490.59
2023-05-08T18:24:54.251Z,99499.16
2023-05-08T18:27:21.788Z,99501.53
2023-05-08T18:29:49.405Z,99498.69
2023-05-08T18:32:16.978Z,99501.53
2023-05-08T18:34:44.601Z,99497.94
2023-05-08T18:37:12.143Z,99504.41
2023-05-08T18:39:39.682Z,99502.78
2023-05-08T18:42:08.856Z,99499.75
2023-05-08T18:44:36.527Z,99496.06
2023-05-08T18:47:05.240Z,99503.84
2023-05-08T18:49:32.897Z,99505.66
2023-05-08T18:52:00.474Z,99501.94
2023-05-08T18:54:27.989Z,99498.22
2023-05-08T18:56:55.632Z,99497.19
2023-05-08T18:59:24.608Z,99499.84
2023-05-08T19:01:52.237Z,99496.91
2023-05-08T19:04:19.834Z,99491.66
2023-05-08T19:06:47.839Z,99484.34
2023-05-08T19:09:15.641Z,99500.03
2023-05-08T19:11:43.267Z,99496.91
2023-05-08T19:14:10.850Z,99490.53
2023-05-08T19:16:40.082Z,99495.66
2023-05-08T19:19:07.682Z,99485.56
2023-05-08T19:21:35.687Z,99494.81
2023-05-08T19:24:03.632Z,99490.03
2023-05-08T19:26:31.306Z,99485.66
2023-05-08T19:28:59.001Z,99493.06
2023-05-08T19:31:26.697Z,99491.63
2023-05-08T19:33:57.202Z,99489.91
2023-05-08T19:36:24.916Z,99489.03
2023-05-08T19:38:52.580Z,99490.84
2023-05-08T19:41:20.451Z,99495.47
2023-05-08T19:43:48.174Z,99492.56
2023-05-08T19:46:15.800Z,99491.78
2023-05-08T19:48:43.557Z,99492.34
2023-05-08T19:51:12.489Z,99492.44
2023-05-08T19:53:40.614Z,99492.69
2023-05-08T19:56:08.316Z,99498.78
2023-05-08T19:58:35.910Z,99504.94
2023-05-08T20:01:03.473Z,99494.97
2023-05-08T20:03:31.135Z,99487.16
2023-05-08T20:05:58.767Z,99495.75
2023-05-08T20:08:27.838Z,99488.69
2023-05-08T20:10:55.473Z,99504.44
2023-05-08T20:13:23.085Z,99512.41
2023-05-08T20:15:50.814Z,99508.31
2023-05-08T20:18:18.383Z,99508.31
2023-05-08T20:20:46.167Z,99510.38
2023-05-08T20:23:13.757Z,99510.38
2023-05-08T20:25:46.055Z,99491.28
2023-05-08T20:28:13.679Z,99492.31
2023-05-08T20:30:41.364Z,99494.53
2023-05-08T20:33:09.054Z,99495.56
2023-05-08T20:35:36.907Z,99484.88
2023-05-08T20:38:04.516Z,99490.44
2023-05-08T20:40:32.151Z,99486.31
2023-05-08T20:43:01.030Z,99491.47
2023-05-08T20:45:28.760Z,99486.66
2023-05-08T20:47:56.468Z,99491.81
2023-05-08T20:50:24.143Z,99489.16
2023-05-08T20:52:51.862Z,99487.38
2023-05-08T20:55:19.538Z,99483.16
2023-05-08T20:57:47.207Z,99488.22
2023-05-08T21:00:16.647Z,99493.44
2023-05-08T21:02:44.207Z,99484.88
2023-05-08T21:05:12.127Z,99491.13
2023-05-08T21:07:41.969Z,99484.78
2023-05-08T21:10:10.323Z,99493.53
2023-05-08T21:12:38.754Z,99487.44
2023-05-08T21:15:07.538Z,99488.22
2023-05-08T21:17:36.514Z,99477.78
2023-05-08T21:20:04.129Z,99482.91
2023-05-08T21:22:31.758Z,99472.38
2023-05-08T21:24:59.519Z,99475.13
2023-05-08T21:27:27.286Z,99478.38
2023-05-08T21:29:54.907Z,99475.72
2023-05-08T21:32:22.527Z,99478.19
2023-05-08T21:34:51.545Z,99483.59
2023-05-08T21:37:19.220Z,99487.19
2023-05-08T21:39:46.841Z,99481.78
2023-05-08T21:42:14.440Z,99485.31
2023-05-08T21:44:42.304Z,99478.28
2023-05-08T21:47:09.897Z,99480.41
2023-05-08T21:49:37.519Z,99473.81
2023-05-08T21:52:06.736Z,99472.19
2023-05-08T21:54:34.359Z,99467.66
2023-05-08T21:57:01.979Z,99460.03
2023-05-08T21:59:29.598Z,99457.81
2023-05-08T22:01:57.179Z,99457.03
2023-05-08T22:04:24.738Z,99453.63
2023-05-08T22:06:52.421Z,99449.69
2023-05-08T22:09:21.335Z,99447.38
2023-05-08T22:11:49.230Z,99441.78
2023-05-08T22:14:16.879Z,99437.78
2023-05-08T22:16:44.604Z,99434.47
2023-05-08T22:19:12.353Z,99434.84
2023-05-08T22:21:41.522Z,99436.91
2023-05-08T22:24:09.325Z,99431.94
2023-05-08T22:26:38.367Z,99437.75
2023-05-08T22:29:06.229Z,99429.22
2023-05-08T22:31:33.929Z,99425.19
2023-05-08T22:34:03.429Z,99419.03
2023-05-08T22:36:31.052Z,99411.50
2023-05-08T22:38:58.807Z,99423.91
2023-05-08T22:41:26.737Z,99402.31
2023-05-08T22:43:55.827Z,99412.25
2023-05-08T22:46:24.001Z,99397.13
2023-05-08T22:48:52.949Z,99400.88
2023-05-08T22:51:20.684Z,99402.69
2023-05-08T22:53:48.409Z,99398.41
2023-05-08T22:56:15.963Z,99399.16
2023-05-08T22:58:43.633Z,99403.09
2023-05-08T23:01:14.256Z,99399.50
2023-05-08T23:03:41.850Z,99403.97
2023-05-08T23:06:09.493Z,99404.97
2023-05-08T23:08:37.026Z,99401.31
2023-05-08T23:11:04.602Z,99396.00
2023-05-08T23:13:32.735Z,99404.22
2023-05-08T23:16:00.303Z,99398.91
2023-05-08T23:18:29.238Z,99386.59
2023-05-08T23:20:56.829Z,99398.81
2023-05-08T23:23:24.466Z,99387.44
2023-05-08T23:25:52.211Z,99387.28
2023-05-08T23:28:19.775Z,99386.25
2023-05-08T23:30:47.321Z,99379.22
2023-05-08T23:33:14.881Z,99383.06
2023-05-08T23:35:43.800Z,99385.03
2023-05-08T23:38:11.587Z,99362.47
2023-05-08T23:40:39.192Z,99368.63
2023-05-08T23:43:07.114Z,99365.28
2023-05-08T23:45:34.723Z,99359.97
2023-05-08T23:48:02.332Z,99359.63
2023-05-08T23:50:29.978Z,99355.25
2023-05-08T23:52:58.862Z,99354.91
2023-05-08T23:55:26.670Z,99348.91
2023-05-08T23:57:54.247Z,99347.28
